• Join FlightAware (Why Join?)
  • Login
  • US Flag 
06:42AM EST


 

Airport Tracker/Info


-or-


 

Live Flight TrackerFlight Track Log ✈ N412GJ ✈ 23-Jun-2013 ✈ 3J7 - KSUS

Flight Track Log - Related Links

Times and Time Zones

All times are in EDT time to prevent confusion due to time zone crossing. See the N412GJ flight status page for this flight to view local times or setup timezone preferences in your user account.

Time Position Orientation Groundspeed Altitude Reporting Facility
EDT Latitude Longitude Course Direction KTS MPH feet Rate Location/Type
11:12AM 33.6908 -83.1525 333° Northwest 195 224 5,700  Level Atlanta Center
11:13AM 33.7475 -83.1894 332° Northwest 208 239 7,800 1,980 Climbing Atlanta Center
11:14AM 33.8103 -83.2336 330° Northwest 237 273 9,700 2,100 Climbing Atlanta Center
11:15AM 33.8922 -83.2881 331° Northwest 279 321 12,000 2,100 Climbing Atlanta Center
11:16AM 34.0531 -83.5263 312° West  Level FlightAware Approximate
11:16AM 33.9675 -83.3225 339° North 295 339 14,000  Level Atlanta Center
11:17AM 34.0656 -83.3267 358° North 323 372 14,000  Level Atlanta Center
11:18AM 34.1722 -83.3383 355° North 368 423 14,000 60 Level Atlanta Center
11:19AM 34.2828 -83.3500 355° North 394 453 14,200 840 Climbing Atlanta Center
11:20AM 34.3892 -83.3567 357° North 388 447 15,700 1,620 Climbing Atlanta Center
11:21AM 34.4958 -83.3633 357° North 382 440 17,500 1,320 Climbing Atlanta Center
11:22AM 34.5958 -83.3725 356° North 382 440 18,400 1,200 Climbing Atlanta Center
11:23AM 34.6694 -83.4378 324° Northwest 342 394 20,000 1,740 Climbing Atlanta Center
11:24AM 34.7094 -83.5358 296° West 330 380 21,900 1,920 Climbing Atlanta Center
11:25AM 34.7264 -83.6394 281° West 305 351 23,900 1,980 Climbing Atlanta Center
11:26AM 34.7436 -83.7431 281° West 310 357 25,900 1,980 Climbing Atlanta Center
11:27AM 34.7603 -83.8442 281° West 317 365 27,900 1,860 Climbing Atlanta Center
11:28AM 34.7772 -83.9578 280° West 312 359 29,700 1,380 Climbing Atlanta Center
11:29AM 34.7919 -84.0617 280° West 312 359 30,700 960 Climbing Atlanta Center
11:30AM 34.8106 -84.1728 282° West 318 366 31,700 960 Climbing Atlanta Center
11:31AM 34.8292 -84.2717 283° West 334 384 32,700 600 Climbing Atlanta Center
11:32AM 34.8478 -84.3881 281° West 347 399 33,000 420 Climbing Atlanta Center
11:33AM 34.8681 -84.5222 280° West 363 418 33,600 780 Climbing Atlanta Center
11:34AM 34.8842 -84.6542 279° West 375 432 34,600 840 Climbing Atlanta Center
11:35AM 34.8983 -84.7531 280° West 380 437 35,300 660 Climbing Atlanta Center
11:36AM 34.9475 -84.8775 296° West 375 432 36,000 300 Climbing Atlanta Center
11:37AM 35.0178 -84.9797 310° West 378 435 36,000  Level Atlanta Center
11:38AM 35.0900 -85.0844 310° West 395 455 36,000  Level Atlanta Center
11:39AM 35.1619 -85.1947 309° West 407 468 36,000  Level Atlanta Center
11:40AM 35.2381 -85.3078 310° West 418 481 36,000  Level Atlanta Center
11:41AM 35.3269 -85.4378 310° West 406 467 36,000  Level Memphis Center
11:42AM 35.3981 -85.5508 308° West 411 473 36,000  Level Memphis Center
11:43AM 35.4711 -85.6586 310° West 417 480 36,000  Level Memphis Center
11:44AM 35.5442 -85.7694 309° West 417 480 36,000  Level Memphis Center
11:45AM 35.6236 -85.8925 308° West 422 486 36,000  Level Memphis Center
11:46AM 35.6861 -86.0094 303° West 422 486 36,000  Level Memphis Center
11:47AM 35.7467 -86.1317 301° West 417 480 36,000  Level Memphis Center
11:48AM 35.8069 -86.2514 302° West 412 474 36,000  Level Memphis Center
11:49AM 35.8653 -86.3739 300° West 412 474 36,000  Level Memphis Center
11:50AM 35.9253 -86.4939 302° West 412 474 36,000  Level Memphis Center
11:51AM 35.9853 -86.6144 302° West 412 474 36,000  Level Memphis Center
11:52AM 36.0431 -86.7375 300° West 412 474 36,000  Level Memphis Center
11:53AM 36.0964 -86.8481 301° West 412 474 36,000  Level Memphis Center
11:54AM 36.1539 -86.9717 300° West 412 474 36,000  Level Memphis Center
11:55AM 36.2178 -87.0950 303° West 417 480 36,000  Level Memphis Center
11:56AM 36.2858 -87.2286 302° West 417 480 36,000  Level Memphis Center
11:57AM 36.3450 -87.3503 301° West 417 480 36,000  Level Memphis Center
11:58AM 36.4022 -87.4717 300° West 411 473 36,000  Level Memphis Center
11:59AM 36.4611 -87.5908 302° West 411 473 36,000  Level Memphis Center
12:00PM 36.5203 -87.7156 301° West 416 479 36,000  Level Memphis Center
12:01PM 36.5792 -87.8400 301° West 411 473 36,000  Level Memphis Center
12:02PM 36.6378 -87.9625 301° West 411 473 36,000  Level Memphis Center
12:03PM 36.6900 -88.0722 301° West 411 473 36,000  Level Memphis Center
12:04PM 36.7461 -88.1922 300° West 411 473 36,000  Level Memphis Center
12:05PM 36.8067 -88.3150 302° West 411 473 36,000 -120 Level Memphis Center
12:06PM 36.8714 -88.4533 300° West 416 479 35,800 -660 Descending Memphis Center
12:07PM 36.9275 -88.5767 300° West 416 479 34,700 -900 Descending Memphis Center
12:08PM 36.9853 -88.7025 300° West 416 479 34,000 -360 Descending Memphis Center
12:09PM 37.0433 -88.8286 300° West 416 479 34,000  Level Memphis Center
12:10PM 37.1031 -88.9575 300° West 416 479 34,000 -900 Level Memphis Center
12:11PM 37.1608 -89.0894 299° West 421 484 32,300 -1,680 Descending Memphis Center
12:12PM 37.1864 -89.1403 302° West 425 489 31,500 -1,860 Descending Kansas City Center
12:13PM 37.2453 -89.2708 300° West 428 493 29,500 -1,980 Descending Kansas City Center
12:14PM 37.3053 -89.4053 299° West 438 504 27,500 -1,740 Descending Kansas City Center
12:15PM 37.3778 -89.5644 300° West 439 505 26,000 -1,200 Descending Kansas City Center
12:16PM 37.4539 -89.6856 308° West 447 514 25,100 -1,200 Descending Kansas City Center
12:17PM 37.5458 -89.7892 318° Northwest 445 512 23,600 -1,740 Descending Kansas City Center
12:18PM 37.6306 -89.8839 318° Northwest 442 509 21,500 -2,160 Descending Kansas City Center
12:19PM 37.7186 -89.9831 318° Northwest 431 496 19,200 -2,280 Descending Kansas City Center
12:20PM 37.8156 -90.0939 318° Northwest 399 459 16,800 -2,220 Descending Kansas City Center
12:21PM 37.8972 -90.1811 320° Northwest 387 445 14,700 -2,040 Descending Kansas City Center
12:22PM 37.9747 -90.2694 318° Northwest 378 435 12,700 -1,320 Descending Kansas City Center
12:23PM 38.0706 -90.3139 340° North 373 429 12,000 -360 Descending Kansas City Center
12:24PM 38.1617 -90.3672 335° Northwest 367 422 12,000 -720 Level Kansas City Center
12:25PM 38.2361 -90.4289 327° Northwest 330 380 10,600 -1,680 Descending Kansas City Center
12:26PM 38.3156 -90.4947 327° Northwest 292 336 8,600 -1,680 Descending Kansas City Center
12:27PM 38.3811 -90.5503 326° Northwest 285 328 7,200 -1,380 Descending Kansas City Center
12:28PM 38.4458 -90.6042 327° Northwest 279 321 5,800 -1,380 Descending Kansas City Center
12:29PM 38.5097 -90.6572 327° Northwest 274 315 4,400 -1,320 Descending Kansas City Center
12:30PM 38.5706 -90.7092 326° Northwest 267 307 3,100 -1,200 Descending Kansas City Center
12:31PM 38.6264 -90.7122 358° North 222 255 2,000 -1,200 Descending Kansas City Center
12:32PM 38.6550 -90.6769 44° Northeast 172 198 700 -1,260 Descending Kansas City Center
12:34PM 38.6500 -90.6500 57° Northeast  Level FlightAware Approximate
12:41PM 38.6621 -90.6521 57° Northeast  Level Estimated
12:42PM 38.6621 -90.6521 57° Northeast  Level Estimated